Terminal Aerodrome Forecast
Issued by NWS

Home | Current Version | Previous Version | Text Only | Print | Product List | Glossary On
Versions: 1 2 3 4 5 6 7 8 9 10 11 12 13 14 15 16 17 18 19
000
FTUS46 KSEW 121700
TAFHQM
TAF
KHQM 121720Z 1218/1318 23007KT P6SM OVC005
     FM122200 22010KT P6SM SCT005
     FM130400 23005KT P6SM OVC005
     FM131000 25003KT 3SM BR OVC003=

USA.gov is the U.S. government's official web portal to all federal, state and local government web resources and services.